sensor_id;sensor_type;location;lat;lon;timestamp;pressure;altitude;pressure_sealevel;temperature;humidity
74637;BME280;63141;54.616;39.754;2022-10-01T00:01:06;100324.28;;;26.26;48.40
74637;BME280;63141;54.616;39.754;2022-10-01T00:04:07;100319.91;;;26.25;48.39
74637;BME280;63141;54.616;39.754;2022-10-01T00:07:11;100319.91;;;26.25;48.20
74637;BME280;63141;54.616;39.754;2022-10-01T00:10:14;100318.97;;;26.26;48.18
74637;BME280;63141;54.616;39.754;2022-10-01T00:13:16;100320.84;;;26.24;48.19
74637;BME280;63141;54.616;39.754;2022-10-01T00:16:18;100325.25;;;26.25;48.26
74637;BME280;63141;54.616;39.754;2022-10-01T00:19:19;100314.56;;;26.25;47.99
74637;BME280;63141;54.616;39.754;2022-10-01T00:22:21;100322.59;;;26.25;48.06
74637;BME280;63141;54.616;39.754;2022-10-01T00:25:22;100326.97;;;26.26;48.15
74637;BME280;63141;54.616;39.754;2022-10-01T00:28:25;100318.97;;;26.26;48.22
74637;BME280;63141;54.616;39.754;2022-10-01T00:31:26;100316.28;;;26.26;47.88
74637;BME280;63141;54.616;39.754;2022-10-01T00:34:27;100317.25;;;26.25;48.00
74637;BME280;63141;54.616;39.754;2022-10-01T00:37:28;100312.75;;;26.26;47.89
74637;BME280;63141;54.616;39.754;2022-10-01T00:40:30;100326.13;;;26.26;47.86
74637;BME280;63141;54.616;39.754;2022-10-01T00:43:32;100318.97;;;26.26;48.24
74637;BME280;63141;54.616;39.754;2022-10-01T00:46:40;100314.56;;;26.25;48.13
74637;BME280;63141;54.616;39.754;2022-10-01T00:49:43;100318.97;;;26.26;47.81
74637;BME280;63141;54.616;39.754;2022-10-01T00:52:49;100313.63;;;26.26;48.05
74637;BME280;63141;54.616;39.754;2022-10-01T00:55:55;100322.59;;;26.25;47.98
74637;BME280;63141;54.616;39.754;2022-10-01T00:58:57;100308.28;;;26.26;47.78
74637;BME280;63141;54.616;39.754;2022-10-01T01:02:01;100286.06;;;26.26;47.83
74637;BME280;63141;54.616;39.754;2022-10-01T01:05:02;100297.59;;;26.26;47.85
74637;BME280;63141;54.616;39.754;2022-10-01T01:08:06;100313.63;;;26.26;47.85
74637;BME280;63141;54.616;39.754;2022-10-01T01:14:17;100320.69;;;26.27;47.88
74637;BME280;63141;54.616;39.754;2022-10-01T01:17:24;100330.50;;;26.27;47.98
74637;BME280;63141;54.616;39.754;2022-10-01T01:20:48;100329.63;;;26.26;47.83
74637;BME280;63141;54.616;39.754;2022-10-01T01:27:13;100336.72;;;26.27;47.87
74637;BME280;63141;54.616;39.754;2022-10-01T01:30:18;100332.22;;;26.28;47.77
74637;BME280;63141;54.616;39.754;2022-10-01T01:33:20;100331.38;;;26.27;47.81
74637;BME280;63141;54.616;39.754;2022-10-01T01:36:27;100334.06;;;26.27;47.92
74637;BME280;63141;54.616;39.754;2022-10-01T01:39:32;100324.28;;;26.26;48.01
74637;BME280;63141;54.616;39.754;2022-10-01T01:42:34;100326.91;;;26.28;47.67
74637;BME280;63141;54.616;39.754;2022-10-01T01:45:37;100327.75;;;26.28;48.04
74637;BME280;63141;54.616;39.754;2022-10-01T01:48:39;100325.06;;;26.28;47.88
74637;BME280;63141;54.616;39.754;2022-10-01T01:51:53;100325.94;;;26.29;48.04
74637;BME280;63141;54.616;39.754;2022-10-01T01:54:56;100314.41;;;26.28;47.98
74637;BME280;63141;54.616;39.754;2022-10-01T01:57:57;100306.38;;;26.28;47.72
74637;BME280;63141;54.616;39.754;2022-10-01T02:01:01;100301.03;;;26.28;47.65
74637;BME280;63141;54.616;39.754;2022-10-01T02:04:03;100293.03;;;26.28;47.79
74637;BME280;63141;54.616;39.754;2022-10-01T02:07:21;100290.38;;;26.28;47.81
74637;BME280;63141;54.616;39.754;2022-10-01T02:16:49;100293.03;;;26.28;47.72
74637;BME280;63141;54.616;39.754;2022-10-01T02:19:58;100288.66;;;26.27;47.54
74637;BME280;63141;54.616;39.754;2022-10-01T02:23:04;100287.78;;;26.27;47.59
74637;BME280;63141;54.616;39.754;2022-10-01T02:26:11;100285.03;;;26.28;47.52
74637;BME280;63141;54.616;39.754;2022-10-01T02:29:14;100273.50;;;26.28;47.71
74637;BME280;63141;54.616;39.754;2022-10-01T02:32:17;100276.16;;;26.28;47.79
74637;BME280;63141;54.616;39.754;2022-10-01T02:35:18;100269.00;;;26.28;47.51
74637;BME280;63141;54.616;39.754;2022-10-01T02:38:20;100263.66;;;26.28;47.75
74637;BME280;63141;54.616;39.754;2022-10-01T02:41:23;100259.19;;;26.29;47.59
74637;BME280;63141;54.616;39.754;2022-10-01T02:44:27;100252.91;;;26.30;47.64
74637;BME280;63141;54.616;39.754;2022-10-01T02:50:36;100248.44;;;26.30;47.67
74637;BME280;63141;54.616;39.754;2022-10-01T02:53:42;100240.41;;;26.30;47.75
74637;BME280;63141;54.616;39.754;2022-10-01T02:56:46;100240.41;;;26.30;47.65
74637;BME280;63141;54.616;39.754;2022-10-01T03:00:08;100239.44;;;26.31;47.37
74637;BME280;63141;54.616;39.754;2022-10-01T03:03:15;100231.44;;;26.31;47.72
74637;BME280;63141;54.616;39.754;2022-10-01T03:06:16;100230.59;;;26.31;47.50
74637;BME280;63141;54.616;39.754;2022-10-01T03:09:17;100237.66;;;26.32;47.50
74637;BME280;63141;54.616;39.754;2022-10-01T03:12:18;100237.66;;;26.32;47.64
74637;BME280;63141;54.616;39.754;2022-10-01T03:15:20;100227.00;;;26.32;47.62
74637;BME280;63141;54.616;39.754;2022-10-01T03:18:21;100230.50;;;26.32;47.32
74637;BME280;63141;54.616;39.754;2022-10-01T03:21:22;100230.50;;;26.32;47.35
74637;BME280;63141;54.616;39.754;2022-10-01T03:24:23;100233.19;;;26.32;47.32
74637;BME280;63141;54.616;39.754;2022-10-01T03:27:24;100234.03;;;26.33;47.76
74637;BME280;63141;54.616;39.754;2022-10-01T03:30:25;100241.19;;;26.32;47.30
74637;BME280;63141;54.616;39.754;2022-10-01T03:33:26;100234.22;;;26.30;47.61
74637;BME280;63141;54.616;39.754;2022-10-01T03:36:28;100226.38;;;26.27;47.19
74637;BME280;63141;54.616;39.754;2022-10-01T03:39:29;100227.50;;;26.23;47.15
74637;BME280;63141;54.616;39.754;2022-10-01T03:42:31;100235.59;;;26.21;47.35
74637;BME280;63141;54.616;39.754;2022-10-01T03:45:32;100237.47;;;26.19;47.17
74637;BME280;63141;54.616;39.754;2022-10-01T03:48:33;100240.22;;;26.18;47.14
74637;BME280;63141;54.616;39.754;2022-10-01T03:51:34;100236.88;;;26.14;46.67
74637;BME280;63141;54.616;39.754;2022-10-01T03:54:37;100240.47;;;26.13;46.88
74637;BME280;63141;54.616;39.754;2022-10-01T03:57:39;100240.59;;;26.11;46.44
74637;BME280;63141;54.616;39.754;2022-10-01T04:00:42;100238.00;;;26.10;46.58
74637;BME280;63141;54.616;39.754;2022-10-01T04:03:44;100233.59;;;26.09;46.59
74637;BME280;63141;54.616;39.754;2022-10-01T04:06:48;100245.16;;;26.09;46.40
74637;BME280;63141;54.616;39.754;2022-10-01T04:09:50;100255.91;;;26.08;46.21
74637;BME280;63141;54.616;39.754;2022-10-01T04:12:51;100250.56;;;26.08;46.38
74637;BME280;63141;54.616;39.754;2022-10-01T04:15:52;100254.19;;;26.07;46.07
74637;BME280;63141;54.616;39.754;2022-10-01T04:18:53;100256.06;;;26.05;46.43
74637;BME280;63141;54.616;39.754;2022-10-01T04:21:55;100249.00;;;26.04;45.83
74637;BME280;63141;54.616;39.754;2022-10-01T04:24:56;100255.28;;;26.03;46.16
74637;BME280;63141;54.616;39.754;2022-10-01T04:27:58;100257.09;;;26.02;45.84
74637;BME280;63141;54.616;39.754;2022-10-01T04:30:59;100249.97;;;26.03;45.76
74637;BME280;63141;54.616;39.754;2022-10-01T04:34:19;100250.88;;;26.02;45.73
74637;BME280;63141;54.616;39.754;2022-10-01T04:37:40;100247.34;;;26.01;45.83
74637;BME280;63141;54.616;39.754;2022-10-01T04:40:41;100240.31;;;26.00;45.99
74637;BME280;63141;54.616;39.754;2022-10-01T04:43:43;100246.50;;;26.01;45.58
74637;BME280;63141;54.616;39.754;2022-10-01T04:46:44;100243.84;;;26.01;45.86
74637;BME280;63141;54.616;39.754;2022-10-01T04:49:45;100247.44;;;26.00;45.59
74637;BME280;63141;54.616;39.754;2022-10-01T04:52:46;100247.44;;;26.00;45.42
74637;BME280;63141;54.616;39.754;2022-10-01T04:55:47;100243.06;;;25.99;45.54
74637;BME280;63141;54.616;39.754;2022-10-01T04:58:48;100238.56;;;25.99;45.73
74637;BME280;63141;54.616;39.754;2022-10-01T05:01:52;100250.09;;;26.00;45.29
74637;BME280;63141;54.616;39.754;2022-10-01T05:04:53;100242.19;;;25.98;45.28
74637;BME280;63141;54.616;39.754;2022-10-01T05:07:57;100245.72;;;25.99;45.29
74637;BME280;63141;54.616;39.754;2022-10-01T05:10:58;100229.72;;;25.99;45.31
74637;BME280;63141;54.616;39.754;2022-10-01T05:14:00;100231.53;;;25.98;45.54
74637;BME280;63141;54.616;39.754;2022-10-01T05:17:01;100226.25;;;25.97;45.48
74637;BME280;63141;54.616;39.754;2022-10-01T05:20:03;100226.25;;;25.97;45.65
74637;BME280;63141;54.616;39.754;2022-10-01T05:23:04;100220.94;;;25.97;45.43
74637;BME280;63141;54.616;39.754;2022-10-01T05:26:06;100225.41;;;25.96;45.38
74637;BME280;63141;54.616;39.754;2022-10-01T05:29:07;100224.56;;;25.96;45.69
74637;BME280;63141;54.616;39.754;2022-10-01T05:32:08;100231.66;;;25.95;45.47
74637;BME280;63141;54.616;39.754;2022-10-01T05:35:10;100233.50;;;25.95;45.55
74637;BME280;63141;54.616;39.754;2022-10-01T05:38:11;100238.81;;;25.95;45.48
74637;BME280;63141;54.616;39.754;2022-10-01T05:41:12;100230.81;;;25.95;45.07
74637;BME280;63141;54.616;39.754;2022-10-01T05:44:13;100233.50;;;25.95;45.27
74637;BME280;63141;54.616;39.754;2022-10-01T05:47:14;100227.28;;;25.94;45.20
74637;BME280;63141;54.616;39.754;2022-10-01T05:50:16;100223.78;;;25.94;45.30
74637;BME280;63141;54.616;39.754;2022-10-01T05:53:17;100217.47;;;25.95;45.41
74637;BME280;63141;54.616;39.754;2022-10-01T05:56:18;100208.63;;;25.94;45.14
74637;BME280;63141;54.616;39.754;2022-10-01T05:59:19;100205.94;;;25.94;45.14
74637;BME280;63141;54.616;39.754;2022-10-01T06:02:23;100212.13;;;25.95;45.30
74637;BME280;63141;54.616;39.754;2022-10-01T06:05:42;100205.94;;;25.94;45.41
74637;BME280;63141;54.616;39.754;2022-10-01T06:08:46;100205.09;;;25.94;45.04
74637;BME280;63141;54.616;39.754;2022-10-01T06:11:47;100205.09;;;25.94;45.22
74637;BME280;63141;54.616;39.754;2022-10-01T06:14:49;100199.75;;;25.94;45.10
74637;BME280;63141;54.616;39.754;2022-10-01T06:17:50;100199.75;;;25.94;45.20
74637;BME280;63141;54.616;39.754;2022-10-01T06:20:51;100199.75;;;25.94;45.10
74637;BME280;63141;54.616;39.754;2022-10-01T06:23:52;100207.75;;;25.94;45.03
74637;BME280;63141;54.616;39.754;2022-10-01T06:26:54;100205.09;;;25.94;45.36
74637;BME280;63141;54.616;39.754;2022-10-01T06:29:55;100206.81;;;25.95;44.85
74637;BME280;63141;54.616;39.754;2022-10-01T06:33:00;100207.75;;;25.94;45.13
74637;BME280;63141;54.616;39.754;2022-10-01T06:36:02;100205.94;;;25.94;45.17
74637;BME280;63141;54.616;39.754;2022-10-01T06:39:04;100205.94;;;25.94;45.10
74637;BME280;63141;54.616;39.754;2022-10-01T06:42:05;100197.09;;;25.94;44.94
74637;BME280;63141;54.616;39.754;2022-10-01T06:45:06;100200.59;;;25.94;44.83
74637;BME280;63141;54.616;39.754;2022-10-01T06:48:09;100199.75;;;25.94;44.95
74637;BME280;63141;54.616;39.754;2022-10-01T06:51:13;100194.41;;;25.94;45.24
74637;BME280;63141;54.616;39.754;2022-10-01T06:54:14;100199.75;;;25.94;44.84
74637;BME280;63141;54.616;39.754;2022-10-01T06:57:18;100198.91;;;25.93;45.16
74637;BME280;63141;54.616;39.754;2022-10-01T07:00:19;100194.41;;;25.94;45.15
74637;BME280;63141;54.616;39.754;2022-10-01T07:03:25;100199.75;;;25.94;45.17
74637;BME280;63141;54.616;39.754;2022-10-01T07:06:26;100185.56;;;25.93;45.24
74637;BME280;63141;54.616;39.754;2022-10-01T07:09:27;100185.44;;;25.95;45.15
74637;BME280;63141;54.616;39.754;2022-10-01T07:12:28;100182.88;;;25.93;45.23
74637;BME280;63141;54.616;39.754;2022-10-01T07:15:30;100179.25;;;25.94;44.98
74637;BME280;63141;54.616;39.754;2022-10-01T07:18:31;100177.56;;;25.93;45.49
74637;BME280;63141;54.616;39.754;2022-10-01T07:21:32;100165.06;;;25.94;45.34
74637;BME280;63141;54.616;39.754;2022-10-01T07:24:33;100167.56;;;25.97;45.61
74637;BME280;63141;54.616;39.754;2022-10-01T07:27:34;100157.47;;;26.02;45.70
74637;BME280;63141;54.616;39.754;2022-10-01T07:30:35;100151.97;;;26.05;45.56
74637;BME280;63141;54.616;39.754;2022-10-01T07:33:37;100152.56;;;26.10;45.71
74637;BME280;63141;54.616;39.754;2022-10-01T07:36:39;100156.81;;;26.14;45.75
74637;BME280;63141;54.616;39.754;2022-10-01T07:39:40;100159.28;;;26.17;45.58
74637;BME280;63141;54.616;39.754;2022-10-01T07:42:41;100166.34;;;26.18;45.75
74637;BME280;63141;54.616;39.754;2022-10-01T07:45:45;100163.59;;;26.20;45.99
74637;BME280;63141;54.616;39.754;2022-10-01T07:48:47;100159.88;;;26.22;46.26
74637;BME280;63141;54.616;39.754;2022-10-01T07:51:48;100158.75;;;26.26;46.37
74637;BME280;63141;54.616;39.754;2022-10-01T07:54:49;100150.69;;;26.28;46.16
74637;BME280;63141;54.616;39.754;2022-10-01T07:57:51;100144.28;;;26.30;46.42
74637;BME280;63141;54.616;39.754;2022-10-01T08:00:52;100131.72;;;26.32;46.59
74637;BME280;63141;54.616;39.754;2022-10-01T08:04:00;100123.59;;;26.34;46.89
74637;BME280;63141;54.616;39.754;2022-10-01T08:07:22;100114.75;;;26.33;46.80
74637;BME280;63141;54.616;39.754;2022-10-01T08:10:23;100100.53;;;26.33;46.84
74637;BME280;63141;54.616;39.754;2022-10-01T08:13:24;100107.69;;;26.32;47.05
74637;BME280;63141;54.616;39.754;2022-10-01T08:16:25;100098.91;;;26.30;47.20
74637;BME280;63141;54.616;39.754;2022-10-01T08:19:28;100092.78;;;26.28;47.06
74637;BME280;63141;54.616;39.754;2022-10-01T08:22:29;100094.50;;;26.29;47.07
74637;BME280;63141;54.616;39.754;2022-10-01T08:25:31;100090.91;;;26.30;47.19
74637;BME280;63141;54.616;39.754;2022-10-01T08:28:33;100097.09;;;26.31;47.13
74637;BME280;63141;54.616;39.754;2022-10-01T08:31:34;100104.16;;;26.32;47.10
74637;BME280;63141;54.616;39.754;2022-10-01T08:34:35;100098.81;;;26.32;47.12
74637;BME280;63141;54.616;39.754;2022-10-01T08:37:36;100094.34;;;26.32;47.32
74637;BME280;63141;54.616;39.754;2022-10-01T08:40:41;100088.16;;;26.32;47.32
74637;BME280;63141;54.616;39.754;2022-10-01T08:43:44;100089.00;;;26.32;47.00
74637;BME280;63141;54.616;39.754;2022-10-01T08:46:45;100093.38;;;26.33;47.08
74637;BME280;63141;54.616;39.754;2022-10-01T08:49:47;100097.78;;;26.35;47.21
74637;BME280;63141;54.616;39.754;2022-10-01T08:52:53;100088.88;;;26.34;46.93
74637;BME280;63141;54.616;39.754;2022-10-01T08:55:56;100086.13;;;26.36;47.13
74637;BME280;63141;54.616;39.754;2022-10-01T08:58:59;100084.31;;;26.36;47.02
74637;BME280;63141;54.616;39.754;2022-10-01T09:12:02;100097.69;;;26.36;47.04
74637;BME280;63141;54.616;39.754;2022-10-01T09:21:55;100090.53;;;26.37;46.97
74637;BME280;63141;54.616;39.754;2022-10-01T09:25:11;100085.22;;;26.37;47.09
74637;BME280;63141;54.616;39.754;2022-10-01T09:31:23;100070.03;;;26.37;46.80
74637;BME280;63141;54.616;39.754;2022-10-01T09:34:47;100071.84;;;26.37;46.85
74637;BME280;63141;54.616;39.754;2022-10-01T09:37:50;100070.91;;;26.38;46.77
74637;BME280;63141;54.616;39.754;2022-10-01T09:40:53;100064.69;;;26.37;46.97
74637;BME280;63141;54.616;39.754;2022-10-01T09:43:55;100056.69;;;26.37;46.69
74637;BME280;63141;54.616;39.754;2022-10-01T09:46:56;100060.22;;;26.38;46.75
74637;BME280;63141;54.616;39.754;2022-10-01T09:49:58;100057.53;;;26.38;46.94
74637;BME280;63141;54.616;39.754;2022-10-01T09:53:00;100056.56;;;26.39;46.96
74637;BME280;63141;54.616;39.754;2022-10-01T09:56:04;100055.72;;;26.38;46.63
74637;BME280;63141;54.616;39.754;2022-10-01T09:59:10;100047.72;;;26.38;46.73
74637;BME280;63141;54.616;39.754;2022-10-01T10:02:18;100043.22;;;26.39;46.64
74637;BME280;63141;54.616;39.754;2022-10-01T10:05:28;100037.03;;;26.38;46.74
74637;BME280;63141;54.616;39.754;2022-10-01T10:08:30;100037.88;;;26.39;46.76
74637;BME280;63141;54.616;39.754;2022-10-01T10:11:33;100026.28;;;26.40;46.52
74637;BME280;63141;54.616;39.754;2022-10-01T10:14:35;100021.00;;;26.38;46.81
74637;BME280;63141;54.616;39.754;2022-10-01T10:17:39;100016.53;;;26.39;46.64
74637;BME280;63141;54.616;39.754;2022-10-01T10:20:42;100012.06;;;26.39;46.59
74637;BME280;63141;54.616;39.754;2022-10-01T10:23:51;100010.25;;;26.40;46.45
74637;BME280;63141;54.616;39.754;2022-10-01T10:26:54;100004.91;;;26.40;46.73
74637;BME280;63141;54.616;39.754;2022-10-01T10:33:04;99996.97;;;26.38;46.38
74637;BME280;63141;54.616;39.754;2022-10-01T10:36:06;99993.38;;;26.39;46.54
74637;BME280;63141;54.616;39.754;2022-10-01T10:39:22;99982.69;;;26.39;46.28
74637;BME280;63141;54.616;39.754;2022-10-01T10:42:24;99972.00;;;26.39;46.67
74637;BME280;63141;54.616;39.754;2022-10-01T10:45:31;99971.03;;;26.40;46.62
74637;BME280;63141;54.616;39.754;2022-10-01T10:48:34;99961.34;;;26.39;46.49
74637;BME280;63141;54.616;39.754;2022-10-01T10:51:46;99956.84;;;26.40;46.21
74637;BME280;63141;54.616;39.754;2022-10-01T10:54:51;99949.69;;;26.40;46.52
74637;BME280;63141;54.616;39.754;2022-10-01T10:57:53;99952.34;;;26.40;46.42
74637;BME280;63141;54.616;39.754;2022-10-01T11:00:56;99945.31;;;26.39;46.36
74637;BME280;63141;54.616;39.754;2022-10-01T11:04:05;99951.50;;;26.40;46.47
74637;BME280;63141;54.616;39.754;2022-10-01T11:07:18;99951.50;;;26.40;46.43
74637;BME280;63141;54.616;39.754;2022-10-01T11:13:45;99951.50;;;26.40;46.17
74637;BME280;63141;54.616;39.754;2022-10-01T11:29:16;99966.69;;;26.39;46.41
74637;BME280;63141;54.616;39.754;2022-10-01T11:35:48;99977.53;;;26.36;46.64
74637;BME280;63141;54.616;39.754;2022-10-01T11:39:03;99964.28;;;26.35;46.92
74637;BME280;63141;54.616;39.754;2022-10-01T11:42:06;99959.03;;;26.33;47.04
74637;BME280;63141;54.616;39.754;2022-10-01T11:45:13;99963.69;;;26.29;47.37
74637;BME280;63141;54.616;39.754;2022-10-01T11:48:21;99945.19;;;26.26;47.66
74637;BME280;63141;54.616;39.754;2022-10-01T11:51:26;99939.06;;;26.24;47.62
74637;BME280;63141;54.616;39.754;2022-10-01T11:54:30;99940.03;;;26.23;47.75
74637;BME280;63141;54.616;39.754;2022-10-01T11:57:33;99926.78;;;26.22;48.05
74637;BME280;63141;54.616;39.754;2022-10-01T12:14:11;99919.03;;;26.17;48.60
74637;BME280;63141;54.616;39.754;2022-10-01T12:17:33;99909.34;;;26.16;48.86
74637;BME280;63141;54.616;39.754;2022-10-01T12:20:40;99896.94;;;26.15;48.81
74637;BME280;63141;54.616;39.754;2022-10-01T12:23:46;99904.94;;;26.15;48.62
74637;BME280;63141;54.616;39.754;2022-10-01T12:26:58;99904.16;;;26.13;48.67
74637;BME280;63141;54.616;39.754;2022-10-01T12:36:24;99912.38;;;26.10;48.86
74637;BME280;63141;54.616;39.754;2022-10-01T12:45:55;99893.00;;;26.06;48.70
74637;BME280;63141;54.616;39.754;2022-10-01T13:02:13;99888.81;;;26.02;48.65
74637;BME280;63141;54.616;39.754;2022-10-01T13:14:53;99884.41;;;26.01;48.61
74637;BME280;63141;54.616;39.754;2022-10-01T13:24:03;99884.50;;;26.00;48.68
74637;BME280;63141;54.616;39.754;2022-10-01T13:33:55;99875.56;;;26.01;48.73
74637;BME280;63141;54.616;39.754;2022-10-01T13:37:03;99873.81;;;26.00;48.74
74637;BME280;63141;54.616;39.754;2022-10-01T13:40:22;99868.47;;;26.00;48.86
74637;BME280;63141;54.616;39.754;2022-10-01T13:43:24;99872.13;;;25.99;48.84
74637;BME280;63141;54.616;39.754;2022-10-01T13:46:26;99865.09;;;25.98;48.55
74637;BME280;63141;54.616;39.754;2022-10-01T13:49:30;99862.28;;;25.99;48.41
74637;BME280;63141;54.616;39.754;2022-10-01T13:52:31;99854.22;;;26.01;48.60
74637;BME280;63141;54.616;39.754;2022-10-01T13:55:33;99858.59;;;26.02;48.46
74637;BME280;63141;54.616;39.754;2022-10-01T13:58:37;99843.53;;;26.01;48.43
74637;BME280;63141;54.616;39.754;2022-10-01T14:01:39;99835.53;;;26.01;48.57
74637;BME280;63141;54.616;39.754;2022-10-01T14:04:46;99836.38;;;26.01;48.67
74637;BME280;63141;54.616;39.754;2022-10-01T14:07:48;99836.47;;;26.00;48.63
74637;BME280;63141;54.616;39.754;2022-10-01T14:11:11;99831.31;;;25.97;48.59
74637;BME280;63141;54.616;39.754;2022-10-01T14:14:35;99825.06;;;25.98;48.61
74637;BME280;63141;54.616;39.754;2022-10-01T14:17:55;99821.22;;;26.02;48.65
74637;BME280;63141;54.616;39.754;2022-10-01T14:37:10;99818.47;;;26.18;48.99
74637;BME280;63141;54.616;39.754;2022-10-01T14:40:14;99813.81;;;26.21;48.98
74637;BME280;63141;54.616;39.754;2022-10-01T14:43:17;99813.59;;;26.24;49.20
74637;BME280;63141;54.616;39.754;2022-10-01T14:46:19;99808.09;;;26.27;48.97
74637;BME280;63141;54.616;39.754;2022-10-01T14:52:25;99805.13;;;26.32;49.20
74637;BME280;63141;54.616;39.754;2022-10-01T14:55:27;99797.50;;;26.26;49.26
74637;BME280;63141;54.616;39.754;2022-10-01T14:58:30;99799.50;;;26.22;49.36
74637;BME280;63141;54.616;39.754;2022-10-01T15:01:32;99794.44;;;26.18;49.32
74637;BME280;63141;54.616;39.754;2022-10-01T15:04:43;99787.69;;;26.12;49.39
74637;BME280;63141;54.616;39.754;2022-10-01T15:07:44;99777.19;;;26.09;49.22
74637;BME280;63141;54.616;39.754;2022-10-01T15:10:50;99772.91;;;26.06;48.89
74637;BME280;63141;54.616;39.754;2022-10-01T15:13:53;99766.91;;;26.03;48.93
74637;BME280;63141;54.616;39.754;2022-10-01T15:16:55;99761.75;;;26.00;49.46
74637;BME280;63141;54.616;39.754;2022-10-01T15:19:56;99753.00;;;25.98;49.20
74637;BME280;63141;54.616;39.754;2022-10-01T15:22:58;99744.25;;;25.96;49.00
74637;BME280;63141;54.616;39.754;2022-10-01T15:25:59;99745.28;;;25.93;49.34
74637;BME280;63141;54.616;39.754;2022-10-01T15:29:09;99735.47;;;25.94;49.16
74637;BME280;63141;54.616;39.754;2022-10-01T15:32:13;99736.41;;;25.92;48.88
74637;BME280;63141;54.616;39.754;2022-10-01T15:35:18;99728.41;;;25.92;48.91
74637;BME280;63141;54.616;39.754;2022-10-01T15:38:19;99729.28;;;25.93;48.68
74637;BME280;63141;54.616;39.754;2022-10-01T15:41:22;99731.06;;;25.92;49.00
74637;BME280;63141;54.616;39.754;2022-10-01T15:47:35;99706.53;;;25.86;48.81
74637;BME280;63141;54.616;39.754;2022-10-01T15:50:37;99697.91;;;25.82;49.14
74637;BME280;63141;54.616;39.754;2022-10-01T15:53:39;99697.91;;;25.82;49.10
74637;BME280;63141;54.616;39.754;2022-10-01T15:56:40;99688.16;;;25.81;49.22
74637;BME280;63141;54.616;39.754;2022-10-01T15:59:41;99682.06;;;25.79;49.36
74637;BME280;63141;54.616;39.754;2022-10-01T16:02:45;99688.16;;;25.81;49.61
74637;BME280;63141;54.616;39.754;2022-10-01T16:05:47;99686.47;;;25.80;49.66
74637;BME280;63141;54.616;39.754;2022-10-01T16:14:58;99677.91;;;25.75;50.01
74637;BME280;63141;54.616;39.754;2022-10-01T16:18:00;99676.84;;;25.78;50.96
74637;BME280;63141;54.616;39.754;2022-10-01T16:21:02;99676.94;;;25.76;50.97
74637;BME280;63141;54.616;39.754;2022-10-01T16:24:04;99669.28;;;25.70;50.75
74637;BME280;63141;54.616;39.754;2022-10-01T16:27:28;99667.81;;;25.66;50.88
74637;BME280;63141;54.616;39.754;2022-10-01T16:30:31;99661.59;;;25.65;51.54
74637;BME280;63141;54.616;39.754;2022-10-01T16:33:33;99665.13;;;25.66;51.23
74637;BME280;63141;54.616;39.754;2022-10-01T16:36:34;99659.88;;;25.64;51.82
74637;BME280;63141;54.616;39.754;2022-10-01T16:39:37;99657.13;;;25.66;51.43
74637;BME280;63141;54.616;39.754;2022-10-01T16:42:38;99649.91;;;25.68;51.38
74637;BME280;63141;54.616;39.754;2022-10-01T16:45:40;99647.41;;;25.65;51.18
74637;BME280;63141;54.616;39.754;2022-10-01T16:48:42;99649.59;;;25.58;50.95
74637;BME280;63141;54.616;39.754;2022-10-01T16:51:44;99631.22;;;25.54;50.97
74637;BME280;63141;54.616;39.754;2022-10-01T16:54:51;99627.03;;;25.49;51.15
74637;BME280;63141;54.616;39.754;2022-10-01T16:57:53;99628.06;;;25.47;50.93
74637;BME280;63141;54.616;39.754;2022-10-01T17:00:59;99628.34;;;25.42;50.96
74637;BME280;63141;54.616;39.754;2022-10-01T17:04:08;99626.66;;;25.41;51.22
74637;BME280;63141;54.616;39.754;2022-10-01T17:07:12;99635.50;;;25.42;50.82
74637;BME280;63141;54.616;39.754;2022-10-01T17:10:13;99631.97;;;25.41;50.70
74637;BME280;63141;54.616;39.754;2022-10-01T17:13:15;99630.84;;;25.45;50.90
74637;BME280;63141;54.616;39.754;2022-10-01T17:16:16;99620.94;;;25.47;50.54
74637;BME280;63141;54.616;39.754;2022-10-01T17:19:17;99616.66;;;25.45;50.58
74637;BME280;63141;54.616;39.754;2022-10-01T17:22:18;99612.19;;;25.45;50.59
74637;BME280;63141;54.616;39.754;2022-10-01T17:25:21;99604.19;;;25.45;50.73
74637;BME280;63141;54.616;39.754;2022-10-01T17:28:22;99605.13;;;25.44;50.75
74637;BME280;63141;54.616;39.754;2022-10-01T17:31:24;99608.56;;;25.46;50.65
74637;BME280;63141;54.616;39.754;2022-10-01T17:34:27;99601.13;;;25.52;50.73
74637;BME280;63141;54.616;39.754;2022-10-01T17:37:28;99607.13;;;25.55;50.53
74637;BME280;63141;54.616;39.754;2022-10-01T17:40:29;99598.84;;;25.60;50.20
74637;BME280;63141;54.616;39.754;2022-10-01T17:43:30;99581.78;;;25.62;50.21
74637;BME280;63141;54.616;39.754;2022-10-01T17:46:31;99586.91;;;25.65;50.17
74637;BME280;63141;54.616;39.754;2022-10-01T17:49:32;99572.63;;;25.66;50.11
74637;BME280;63141;54.616;39.754;2022-10-01T17:52:33;99576.91;;;25.69;50.19
74637;BME280;63141;54.616;39.754;2022-10-01T17:55:38;99573.28;;;25.70;50.14
74637;BME280;63141;54.616;39.754;2022-10-01T17:58:39;99555.38;;;25.72;50.08
74637;BME280;63141;54.616;39.754;2022-10-01T18:01:47;99552.63;;;25.74;49.90
74637;BME280;63141;54.616;39.754;2022-10-01T18:04:52;99552.63;;;25.74;50.06
74637;BME280;63141;54.616;39.754;2022-10-01T18:07:53;99551.84;;;25.71;50.45
74637;BME280;63141;54.616;39.754;2022-10-01T18:11:02;99541.28;;;25.70;50.63
74637;BME280;63141;54.616;39.754;2022-10-01T18:14:03;99537.75;;;25.69;50.17
74637;BME280;63141;54.616;39.754;2022-10-01T18:17:06;99534.34;;;25.67;50.45
74637;BME280;63141;54.616;39.754;2022-10-01T18:20:07;99542.34;;;25.67;50.13